sensor_id;sensor_type;location;lat;lon;timestamp;temperature;humidity
71088;SHT31;58747;50.674;4.616;2022-08-01T00:01:33;20.61;76.08
71088;SHT31;58747;50.674;4.616;2022-08-01T00:03:59;20.56;76.11
71088;SHT31;58747;50.674;4.616;2022-08-01T00:06:24;20.51;76.22
71088;SHT31;58747;50.674;4.616;2022-08-01T00:08:50;20.45;76.76
71088;SHT31;58747;50.674;4.616;2022-08-01T00:11:15;20.41;76.86
71088;SHT31;58747;50.674;4.616;2022-08-01T00:13:41;20.40;77.03
71088;SHT31;58747;50.674;4.616;2022-08-01T00:16:06;20.34;77.21
71088;SHT31;58747;50.674;4.616;2022-08-01T00:18:31;20.40;77.05
71088;SHT31;58747;50.674;4.616;2022-08-01T00:20:57;20.41;77.10
71088;SHT31;58747;50.674;4.616;2022-08-01T00:23:22;20.37;77.27
71088;SHT31;58747;50.674;4.616;2022-08-01T00:25:47;20.40;77.29
71088;SHT31;58747;50.674;4.616;2022-08-01T00:28:13;20.41;77.31
71088;SHT31;58747;50.674;4.616;2022-08-01T00:30:38;20.40;77.39
71088;SHT31;58747;50.674;4.616;2022-08-01T00:33:04;20.31;77.65
71088;SHT31;58747;50.674;4.616;2022-08-01T00:35:29;20.38;77.62
71088;SHT31;58747;50.674;4.616;2022-08-01T00:37:55;20.33;77.88
71088;SHT31;58747;50.674;4.616;2022-08-01T00:40:20;20.25;78.07
71088;SHT31;58747;50.674;4.616;2022-08-01T00:42:46;20.34;77.86
71088;SHT31;58747;50.674;4.616;2022-08-01T00:45:12;20.37;77.71
71088;SHT31;58747;50.674;4.616;2022-08-01T00:47:37;20.35;77.88
71088;SHT31;58747;50.674;4.616;2022-08-01T00:50:03;20.37;77.58
71088;SHT31;58747;50.674;4.616;2022-08-01T00:52:29;20.38;77.62
71088;SHT31;58747;50.674;4.616;2022-08-01T00:54:55;20.38;77.73
71088;SHT31;58747;50.674;4.616;2022-08-01T00:57:20;20.40;77.64
71088;SHT31;58747;50.674;4.616;2022-08-01T00:59:46;20.43;77.59
71088;SHT31;58747;50.674;4.616;2022-08-01T01:02:12;20.38;77.58
71088;SHT31;58747;50.674;4.616;2022-08-01T01:04:37;20.35;77.81
71088;SHT31;58747;50.674;4.616;2022-08-01T01:07:09;20.34;77.79
71088;SHT31;58747;50.674;4.616;2022-08-01T01:09:57;20.41;77.69
71088;SHT31;58747;50.674;4.616;2022-08-01T01:15:26;20.33;77.72
71088;SHT31;58747;50.674;4.616;2022-08-01T01:18:12;20.33;77.68
71088;SHT31;58747;50.674;4.616;2022-08-01T01:20:40;20.28;77.90
71088;SHT31;58747;50.674;4.616;2022-08-01T01:23:25;20.27;77.84
71088;SHT31;58747;50.674;4.616;2022-08-01T01:26:29;20.27;78.00
71088;SHT31;58747;50.674;4.616;2022-08-01T01:29:05;20.27;78.00
71088;SHT31;58747;50.674;4.616;2022-08-01T01:31:40;20.23;78.07
71088;SHT31;58747;50.674;4.616;2022-08-01T01:34:07;20.25;78.12
71088;SHT31;58747;50.674;4.616;2022-08-01T01:36:35;20.24;78.14
71088;SHT31;58747;50.674;4.616;2022-08-01T01:39:00;20.21;78.16
71088;SHT31;58747;50.674;4.616;2022-08-01T01:41:27;20.24;78.08
71088;SHT31;58747;50.674;4.616;2022-08-01T01:43:53;20.16;78.45
71088;SHT31;58747;50.674;4.616;2022-08-01T01:46:24;20.18;78.43
71088;SHT31;58747;50.674;4.616;2022-08-01T01:48:54;20.18;78.47
71088;SHT31;58747;50.674;4.616;2022-08-01T01:51:22;20.20;78.34
71088;SHT31;58747;50.674;4.616;2022-08-01T01:53:49;20.18;78.57
71088;SHT31;58747;50.674;4.616;2022-08-01T01:56:16;20.17;78.54
71088;SHT31;58747;50.674;4.616;2022-08-01T01:58:43;20.13;78.88
71088;SHT31;58747;50.674;4.616;2022-08-01T02:01:10;20.12;78.84
71088;SHT31;58747;50.674;4.616;2022-08-01T02:03:37;20.13;78.78
71088;SHT31;58747;50.674;4.616;2022-08-01T02:06:04;20.18;78.48
71088;SHT31;58747;50.674;4.616;2022-08-01T02:08:30;20.13;78.75
71088;SHT31;58747;50.674;4.616;2022-08-01T02:10:58;20.13;78.91
71088;SHT31;58747;50.674;4.616;2022-08-01T02:13:42;20.07;79.07
71088;SHT31;58747;50.674;4.616;2022-08-01T02:16:08;20.03;79.04
71088;SHT31;58747;50.674;4.616;2022-08-01T02:18:36;19.90;79.56
71088;SHT31;58747;50.674;4.616;2022-08-01T02:21:04;19.96;79.40
71088;SHT31;58747;50.674;4.616;2022-08-01T02:23:32;19.87;79.76
71088;SHT31;58747;50.674;4.616;2022-08-01T02:26:00;19.96;79.43
71088;SHT31;58747;50.674;4.616;2022-08-01T02:28:33;19.94;79.60
71088;SHT31;58747;50.674;4.616;2022-08-01T02:31:02;19.94;79.52
71088;SHT31;58747;50.674;4.616;2022-08-01T02:33:40;19.87;79.83
71088;SHT31;58747;50.674;4.616;2022-08-01T02:36:07;19.85;79.91
71088;SHT31;58747;50.674;4.616;2022-08-01T02:38:40;19.86;79.87
71088;SHT31;58747;50.674;4.616;2022-08-01T02:41:13;19.87;79.72
71088;SHT31;58747;50.674;4.616;2022-08-01T02:43:46;19.87;79.75
71088;SHT31;58747;50.674;4.616;2022-08-01T02:46:16;19.92;79.77
71088;SHT31;58747;50.674;4.616;2022-08-01T02:48:43;19.96;79.58
71088;SHT31;58747;50.674;4.616;2022-08-01T02:51:10;19.89;79.84
71088;SHT31;58747;50.674;4.616;2022-08-01T02:53:38;19.92;79.70
71088;SHT31;58747;50.674;4.616;2022-08-01T02:56:07;19.79;80.21
71088;SHT31;58747;50.674;4.616;2022-08-01T02:58:35;19.82;79.98
71088;SHT31;58747;50.674;4.616;2022-08-01T03:01:02;19.86;79.97
71088;SHT31;58747;50.674;4.616;2022-08-01T03:03:29;19.87;79.96
71088;SHT31;58747;50.674;4.616;2022-08-01T03:05:55;19.85;80.05
71088;SHT31;58747;50.674;4.616;2022-08-01T03:08:22;19.87;80.06
71088;SHT31;58747;50.674;4.616;2022-08-01T03:10:49;19.79;80.33
71088;SHT31;58747;50.674;4.616;2022-08-01T03:13:17;19.76;80.58
71088;SHT31;58747;50.674;4.616;2022-08-01T03:15:43;19.77;80.47
71088;SHT31;58747;50.674;4.616;2022-08-01T03:18:10;19.83;80.31
71088;SHT31;58747;50.674;4.616;2022-08-01T03:20:37;19.85;80.27
71088;SHT31;58747;50.674;4.616;2022-08-01T03:23:05;19.82;80.21
71088;SHT31;58747;50.674;4.616;2022-08-01T03:25:32;19.80;80.36
71088;SHT31;58747;50.674;4.616;2022-08-01T03:28:01;19.86;80.20
71088;SHT31;58747;50.674;4.616;2022-08-01T03:30:29;19.90;79.99
71088;SHT31;58747;50.674;4.616;2022-08-01T03:32:55;19.87;80.42
71088;SHT31;58747;50.674;4.616;2022-08-01T03:35:26;19.76;80.64
71088;SHT31;58747;50.674;4.616;2022-08-01T03:37:54;19.72;81.08
71088;SHT31;58747;50.674;4.616;2022-08-01T03:40:26;19.72;80.92
71088;SHT31;58747;50.674;4.616;2022-08-01T03:43:05;19.72;81.14
71088;SHT31;58747;50.674;4.616;2022-08-01T03:45:36;19.55;81.98
71088;SHT31;58747;50.674;4.616;2022-08-01T03:48:06;19.56;82.03
71088;SHT31;58747;50.674;4.616;2022-08-01T03:50:35;19.58;81.78
71088;SHT31;58747;50.674;4.616;2022-08-01T03:53:03;19.45;82.34
71088;SHT31;58747;50.674;4.616;2022-08-01T03:55:30;19.46;82.28
71088;SHT31;58747;50.674;4.616;2022-08-01T03:57:56;19.52;82.11
71088;SHT31;58747;50.674;4.616;2022-08-01T04:00:23;19.55;82.32
71088;SHT31;58747;50.674;4.616;2022-08-01T04:02:50;19.51;82.42
71088;SHT31;58747;50.674;4.616;2022-08-01T04:05:16;19.55;82.39
71088;SHT31;58747;50.674;4.616;2022-08-01T04:07:49;19.52;82.44
71088;SHT31;58747;50.674;4.616;2022-08-01T04:10:24;19.49;82.55
71088;SHT31;58747;50.674;4.616;2022-08-01T04:12:50;19.41;82.85
71088;SHT31;58747;50.674;4.616;2022-08-01T04:15:15;19.41;83.02
71088;SHT31;58747;50.674;4.616;2022-08-01T04:17:41;19.44;83.03
71088;SHT31;58747;50.674;4.616;2022-08-01T04:20:07;19.48;82.71
71088;SHT31;58747;50.674;4.616;2022-08-01T04:22:33;19.46;82.89
71088;SHT31;58747;50.674;4.616;2022-08-01T04:25:00;19.48;83.13
71088;SHT31;58747;50.674;4.616;2022-08-01T04:27:30;19.45;83.01
71088;SHT31;58747;50.674;4.616;2022-08-01T04:29:58;19.42;83.12
71088;SHT31;58747;50.674;4.616;2022-08-01T04:32:25;19.44;83.07
71088;SHT31;58747;50.674;4.616;2022-08-01T04:34:54;19.45;82.86
71088;SHT31;58747;50.674;4.616;2022-08-01T04:37:22;19.49;82.91
71088;SHT31;58747;50.674;4.616;2022-08-01T04:39:48;19.48;83.01
71088;SHT31;58747;50.674;4.616;2022-08-01T04:42:14;19.48;82.93
71088;SHT31;58747;50.674;4.616;2022-08-01T04:44:40;19.52;82.84
71088;SHT31;58747;50.674;4.616;2022-08-01T04:47:06;19.55;82.83
71088;SHT31;58747;50.674;4.616;2022-08-01T04:49:33;19.45;83.41
71088;SHT31;58747;50.674;4.616;2022-08-01T04:51:59;19.48;83.39
71088;SHT31;58747;50.674;4.616;2022-08-01T04:54:29;19.46;83.83
71088;SHT31;58747;50.674;4.616;2022-08-01T04:56:55;19.44;83.95
71088;SHT31;58747;50.674;4.616;2022-08-01T04:59:27;19.41;84.08
71088;SHT31;58747;50.674;4.616;2022-08-01T05:02:17;19.36;84.40
71088;SHT31;58747;50.674;4.616;2022-08-01T05:04:44;19.31;84.86
71088;SHT31;58747;50.674;4.616;2022-08-01T05:07:10;19.27;85.67
71088;SHT31;58747;50.674;4.616;2022-08-01T05:09:36;19.25;85.67
71088;SHT31;58747;50.674;4.616;2022-08-01T05:12:04;19.17;86.50
71088;SHT31;58747;50.674;4.616;2022-08-01T05:14:29;19.11;86.51
71088;SHT31;58747;50.674;4.616;2022-08-01T05:16:59;19.08;87.10
71088;SHT31;58747;50.674;4.616;2022-08-01T05:19:24;19.10;87.78
71088;SHT31;58747;50.674;4.616;2022-08-01T05:21:50;19.10;87.37
71088;SHT31;58747;50.674;4.616;2022-08-01T05:24:15;19.03;88.15
71088;SHT31;58747;50.674;4.616;2022-08-01T05:26:41;19.00;88.23
71088;SHT31;58747;50.674;4.616;2022-08-01T05:29:06;19.00;87.81
71088;SHT31;58747;50.674;4.616;2022-08-01T05:31:32;19.00;87.84
71088;SHT31;58747;50.674;4.616;2022-08-01T05:34:00;19.00;88.63
71088;SHT31;58747;50.674;4.616;2022-08-01T05:36:26;18.94;89.35
71088;SHT31;58747;50.674;4.616;2022-08-01T05:38:51;18.90;88.95
71088;SHT31;58747;50.674;4.616;2022-08-01T05:41:16;18.93;89.48
71088;SHT31;58747;50.674;4.616;2022-08-01T05:43:42;18.91;89.20
71088;SHT31;58747;50.674;4.616;2022-08-01T05:46:07;18.96;89.23
71088;SHT31;58747;50.674;4.616;2022-08-01T05:48:32;18.96;89.08
71088;SHT31;58747;50.674;4.616;2022-08-01T05:50:58;18.90;89.29
71088;SHT31;58747;50.674;4.616;2022-08-01T05:53:23;18.91;88.91
71088;SHT31;58747;50.674;4.616;2022-08-01T05:55:48;18.93;89.33
71088;SHT31;58747;50.674;4.616;2022-08-01T05:58:14;18.94;89.21
71088;SHT31;58747;50.674;4.616;2022-08-01T06:00:39;18.94;89.08
71088;SHT31;58747;50.674;4.616;2022-08-01T06:03:05;18.94;89.35
71088;SHT31;58747;50.674;4.616;2022-08-01T06:05:30;18.91;89.80
71088;SHT31;58747;50.674;4.616;2022-08-01T06:07:55;18.94;89.45
71088;SHT31;58747;50.674;4.616;2022-08-01T06:10:21;18.96;89.83
71088;SHT31;58747;50.674;4.616;2022-08-01T06:12:46;18.98;89.59
71088;SHT31;58747;50.674;4.616;2022-08-01T06:15:12;19.01;89.41
71088;SHT31;58747;50.674;4.616;2022-08-01T06:17:37;18.98;89.19
71088;SHT31;58747;50.674;4.616;2022-08-01T06:20:04;19.01;89.90
71088;SHT31;58747;50.674;4.616;2022-08-01T06:22:31;19.03;89.99
71088;SHT31;58747;50.674;4.616;2022-08-01T06:24:56;19.01;89.53
71088;SHT31;58747;50.674;4.616;2022-08-01T06:27:21;18.96;89.52
71088;SHT31;58747;50.674;4.616;2022-08-01T06:29:47;18.93;89.95
71088;SHT31;58747;50.674;4.616;2022-08-01T06:32:13;18.91;89.93
71088;SHT31;58747;50.674;4.616;2022-08-01T06:34:39;18.91;89.96
71088;SHT31;58747;50.674;4.616;2022-08-01T06:37:04;18.90;90.25
71088;SHT31;58747;50.674;4.616;2022-08-01T06:39:29;18.91;90.84
71088;SHT31;58747;50.674;4.616;2022-08-01T06:41:55;18.93;90.56
71088;SHT31;58747;50.674;4.616;2022-08-01T06:44:20;18.88;91.22
71088;SHT31;58747;50.674;4.616;2022-08-01T06:46:45;18.79;91.07
71088;SHT31;58747;50.674;4.616;2022-08-01T06:49:11;18.81;91.09
71088;SHT31;58747;50.674;4.616;2022-08-01T06:51:36;18.79;90.99
71088;SHT31;58747;50.674;4.616;2022-08-01T06:54:02;18.79;90.50
71088;SHT31;58747;50.674;4.616;2022-08-01T06:56:27;18.80;90.11
71088;SHT31;58747;50.674;4.616;2022-08-01T06:58:52;18.83;89.98
71088;SHT31;58747;50.674;4.616;2022-08-01T07:01:18;18.84;89.88
71088;SHT31;58747;50.674;4.616;2022-08-01T07:03:43;18.80;89.57
71088;SHT31;58747;50.674;4.616;2022-08-01T07:06:08;18.83;89.36
71088;SHT31;58747;50.674;4.616;2022-08-01T07:08:34;18.81;89.20
71088;SHT31;58747;50.674;4.616;2022-08-01T07:11:00;18.86;89.79
71088;SHT31;58747;50.674;4.616;2022-08-01T07:13:26;18.91;89.38
71088;SHT31;58747;50.674;4.616;2022-08-01T07:15:52;18.98;89.35
71088;SHT31;58747;50.674;4.616;2022-08-01T07:18:18;19.04;89.10
71088;SHT31;58747;50.674;4.616;2022-08-01T07:20:43;19.07;89.19
71088;SHT31;58747;50.674;4.616;2022-08-01T07:23:14;19.12;88.87
71088;SHT31;58747;50.674;4.616;2022-08-01T07:25:39;19.17;88.51
71088;SHT31;58747;50.674;4.616;2022-08-01T07:28:05;19.18;88.46
71088;SHT31;58747;50.674;4.616;2022-08-01T07:30:30;19.25;88.32
71088;SHT31;58747;50.674;4.616;2022-08-01T07:32:56;19.32;87.63
71088;SHT31;58747;50.674;4.616;2022-08-01T07:35:21;19.39;87.52
71088;SHT31;58747;50.674;4.616;2022-08-01T07:37:47;19.44;87.69
71088;SHT31;58747;50.674;4.616;2022-08-01T07:40:13;19.52;87.62
71088;SHT31;58747;50.674;4.616;2022-08-01T07:42:38;19.59;86.50
71088;SHT31;58747;50.674;4.616;2022-08-01T07:45:04;19.63;87.72
71088;SHT31;58747;50.674;4.616;2022-08-01T07:47:29;19.73;86.98
71088;SHT31;58747;50.674;4.616;2022-08-01T07:50:03;19.77;86.03
71088;SHT31;58747;50.674;4.616;2022-08-01T07:52:29;19.85;86.33
71088;SHT31;58747;50.674;4.616;2022-08-01T07:54:55;19.93;86.30
71088;SHT31;58747;50.674;4.616;2022-08-01T07:57:22;19.94;86.48
71088;SHT31;58747;50.674;4.616;2022-08-01T07:59:47;20.10;85.89
71088;SHT31;58747;50.674;4.616;2022-08-01T08:02:12;20.18;85.21
71088;SHT31;58747;50.674;4.616;2022-08-01T08:04:38;20.27;84.96
71088;SHT31;58747;50.674;4.616;2022-08-01T08:07:03;20.33;85.10
71088;SHT31;58747;50.674;4.616;2022-08-01T08:09:28;20.38;84.21
71088;SHT31;58747;50.674;4.616;2022-08-01T08:11:54;20.38;83.70
71088;SHT31;58747;50.674;4.616;2022-08-01T08:14:19;20.48;83.70
71088;SHT31;58747;50.674;4.616;2022-08-01T08:16:47;20.55;83.29
71088;SHT31;58747;50.674;4.616;2022-08-01T08:19:13;20.56;83.19
71088;SHT31;58747;50.674;4.616;2022-08-01T08:21:39;20.72;81.61
71088;SHT31;58747;50.674;4.616;2022-08-01T08:24:05;20.83;81.97
71088;SHT31;58747;50.674;4.616;2022-08-01T08:26:47;21.14;82.39
71088;SHT31;58747;50.674;4.616;2022-08-01T08:29:12;21.37;80.88
71088;SHT31;58747;50.674;4.616;2022-08-01T08:31:38;21.61;78.48
71088;SHT31;58747;50.674;4.616;2022-08-01T08:34:03;21.99;79.22
71088;SHT31;58747;50.674;4.616;2022-08-01T08:36:28;22.30;78.13
71088;SHT31;58747;50.674;4.616;2022-08-01T08:38:54;22.46;77.56
71088;SHT31;58747;50.674;4.616;2022-08-01T08:41:20;22.45;78.54
71088;SHT31;58747;50.674;4.616;2022-08-01T08:43:46;22.42;75.75
71088;SHT31;58747;50.674;4.616;2022-08-01T08:46:13;22.49;74.84
71088;SHT31;58747;50.674;4.616;2022-08-01T08:48:40;22.63;74.92
71088;SHT31;58747;50.674;4.616;2022-08-01T08:51:05;22.67;72.71
71088;SHT31;58747;50.674;4.616;2022-08-01T08:53:33;22.42;71.07
71088;SHT31;58747;50.674;4.616;2022-08-01T08:56:02;22.57;73.67
71088;SHT31;58747;50.674;4.616;2022-08-01T08:58:28;22.56;71.56
71088;SHT31;58747;50.674;4.616;2022-08-01T09:00:54;22.74;72.24
71088;SHT31;58747;50.674;4.616;2022-08-01T09:03:20;22.87;73.66
71088;SHT31;58747;50.674;4.616;2022-08-01T09:05:45;22.87;70.64
71088;SHT31;58747;50.674;4.616;2022-08-01T09:08:11;22.98;71.73
71088;SHT31;58747;50.674;4.616;2022-08-01T09:10:37;22.81;70.01
71088;SHT31;58747;50.674;4.616;2022-08-01T09:13:07;22.98;69.66
71088;SHT31;58747;50.674;4.616;2022-08-01T09:18:08;23.10;68.73
71088;SHT31;58747;50.674;4.616;2022-08-01T09:20:34;23.07;67.89
71088;SHT31;58747;50.674;4.616;2022-08-01T09:23:02;23.21;68.66
71088;SHT31;58747;50.674;4.616;2022-08-01T09:25:28;23.32;66.30
71088;SHT31;58747;50.674;4.616;2022-08-01T09:28:05;23.24;68.03
71088;SHT31;58747;50.674;4.616;2022-08-01T09:30:37;23.44;66.72
71088;SHT31;58747;50.674;4.616;2022-08-01T09:33:04;23.48;64.87
71088;SHT31;58747;50.674;4.616;2022-08-01T09:35:32;23.69;65.33
71088;SHT31;58747;50.674;4.616;2022-08-01T09:38:17;24.16;66.01
71088;SHT31;58747;50.674;4.616;2022-08-01T09:40:58;24.21;63.90
71088;SHT31;58747;50.674;4.616;2022-08-01T09:43:26;23.97;64.88
71088;SHT31;58747;50.674;4.616;2022-08-01T09:45:52;23.87;64.31
71088;SHT31;58747;50.674;4.616;2022-08-01T09:48:19;23.87;65.99
71088;SHT31;58747;50.674;4.616;2022-08-01T09:50:48;23.90;64.31
71088;SHT31;58747;50.674;4.616;2022-08-01T09:53:14;23.99;64.41
71088;SHT31;58747;50.674;4.616;2022-08-01T09:55:40;24.10;63.51
71088;SHT31;58747;50.674;4.616;2022-08-01T09:58:06;24.38;63.99
71088;SHT31;58747;50.674;4.616;2022-08-01T10:00:33;24.35;64.29
71088;SHT31;58747;50.674;4.616;2022-08-01T10:02:59;24.21;62.91
71088;SHT31;58747;50.674;4.616;2022-08-01T10:05:33;24.12;61.74
71088;SHT31;58747;50.674;4.616;2022-08-01T10:08:03;24.40;62.49
71088;SHT31;58747;50.674;4.616;2022-08-01T10:10:30;24.28;61.46
71088;SHT31;58747;50.674;4.616;2022-08-01T10:12:57;24.40;61.75
71088;SHT31;58747;50.674;4.616;2022-08-01T10:15:23;24.48;61.74
71088;SHT31;58747;50.674;4.616;2022-08-01T10:17:56;24.51;61.46
71088;SHT31;58747;50.674;4.616;2022-08-01T10:20:24;24.65;63.09
71088;SHT31;58747;50.674;4.616;2022-08-01T10:22:53;24.78;60.78
71088;SHT31;58747;50.674;4.616;2022-08-01T10:25:20;25.15;59.95
71088;SHT31;58747;50.674;4.616;2022-08-01T10:27:52;25.06;58.85
71088;SHT31;58747;50.674;4.616;2022-08-01T10:30:20;24.99;60.56
71088;SHT31;58747;50.674;4.616;2022-08-01T10:32:46;25.10;60.52
71088;SHT31;58747;50.674;4.616;2022-08-01T10:35:12;25.12;58.70
71088;SHT31;58747;50.674;4.616;2022-08-01T10:37:43;25.08;59.40
71088;SHT31;58747;50.674;4.616;2022-08-01T10:40:11;25.18;60.00
71088;SHT31;58747;50.674;4.616;2022-08-01T10:42:43;25.29;58.45
71088;SHT31;58747;50.674;4.616;2022-08-01T10:45:14;25.31;60.26
71088;SHT31;58747;50.674;4.616;2022-08-01T10:47:44;25.54;57.30
71088;SHT31;58747;50.674;4.616;2022-08-01T10:50:27;25.30;56.71
71088;SHT31;58747;50.674;4.616;2022-08-01T10:53:10;25.49;57.46
71088;SHT31;58747;50.674;4.616;2022-08-01T10:55:50;25.56;55.38
71088;SHT31;58747;50.674;4.616;2022-08-01T10:58:26;25.89;56.44
71088;SHT31;58747;50.674;4.616;2022-08-01T11:01:21;26.06;54.55
71088;SHT31;58747;50.674;4.616;2022-08-01T11:04:13;25.95;55.00
71088;SHT31;58747;50.674;4.616;2022-08-01T11:07:06;26.22;53.46
71088;SHT31;58747;50.674;4.616;2022-08-01T11:09:42;26.33;52.73
71088;SHT31;58747;50.674;4.616;2022-08-01T11:12:13;26.83;51.68
71088;SHT31;58747;50.674;4.616;2022-08-01T11:17:40;27.76;50.11
71088;SHT31;58747;50.674;4.616;2022-08-01T11:20:27;27.79;49.83
71088;SHT31;58747;50.674;4.616;2022-08-01T11:25:25;27.65;48.30
71088;SHT31;58747;50.674;4.616;2022-08-01T11:30:53;28.27;46.64
71088;SHT31;58747;50.674;4.616;2022-08-01T11:38:39;28.68;46.20
71088;SHT31;58747;50.674;4.616;2022-08-01T11:49:27;28.96;46.31
71088;SHT31;58747;50.674;4.616;2022-08-01T11:52:10;29.42;45.58
71088;SHT31;58747;50.674;4.616;2022-08-01T11:54:47;29.94;43.72
71088;SHT31;58747;50.674;4.616;2022-08-01T11:57:32;30.73;41.56
71088;SHT31;58747;50.674;4.616;2022-08-01T12:00:20;31.83;38.46
71088;SHT31;58747;50.674;4.616;2022-08-01T12:02:46;32.14;37.26
71088;SHT31;58747;50.674;4.616;2022-08-01T12:05:13;32.41;35.04
71088;SHT31;58747;50.674;4.616;2022-08-01T12:07:40;32.88;35.42
71088;SHT31;58747;50.674;4.616;2022-08-01T12:10:19;32.50;36.21
71088;SHT31;58747;50.674;4.616;2022-08-01T12:12:58;33.49;36.32
71088;SHT31;58747;50.674;4.616;2022-08-01T12:15:28;34.08;33.89
71088;SHT31;58747;50.674;4.616;2022-08-01T12:17:58;33.81;35.40
71088;SHT31;58747;50.674;4.616;2022-08-01T12:20:29;33.32;36.28
71088;SHT31;58747;50.674;4.616;2022-08-01T12:22:55;33.39;34.56
71088;SHT31;58747;50.674;4.616;2022-08-01T12:25:21;33.34;35.22
71088;SHT31;58747;50.674;4.616;2022-08-01T12:27:47;31.32;38.23
71088;SHT31;58747;50.674;4.616;2022-08-01T12:30:18;30.19;41.37
71088;SHT31;58747;50.674;4.616;2022-08-01T12:32:45;29.88;42.61
71088;SHT31;58747;50.674;4.616;2022-08-01T12:35:13;29.00;43.91
71088;SHT31;58747;50.674;4.616;2022-08-01T12:37:47;28.58;45.33
71088;SHT31;58747;50.674;4.616;2022-08-01T12:40:17;29.15;45.40
71088;SHT31;58747;50.674;4.616;2022-08-01T12:42:45;28.65;44.00
71088;SHT31;58747;50.674;4.616;2022-08-01T12:45:12;28.11;45.59
71088;SHT31;58747;50.674;4.616;2022-08-01T12:47:39;28.16;46.45
71088;SHT31;58747;50.674;4.616;2022-08-01T12:50:12;28.10;45.06
71088;SHT31;58747;50.674;4.616;2022-08-01T12:52:38;27.70;46.42
71088;SHT31;58747;50.674;4.616;2022-08-01T12:57:29;28.61;45.32
71088;SHT31;58747;50.674;4.616;2022-08-01T13:00:06;28.98;43.58
71088;SHT31;58747;50.674;4.616;2022-08-01T13:02:33;29.54;42.00
71088;SHT31;58747;50.674;4.616;2022-08-01T13:04:58;29.15;42.73
71088;SHT31;58747;50.674;4.616;2022-08-01T13:07:37;29.26;43.13
71088;SHT31;58747;50.674;4.616;2022-08-01T13:10:04;28.68;44.09
71088;SHT31;58747;50.674;4.616;2022-08-01T13:12:29;28.20;45.75
71088;SHT31;58747;50.674;4.616;2022-08-01T13:14:55;28.02;44.80
71088;SHT31;58747;50.674;4.616;2022-08-01T13:17:33;27.96;44.42
71088;SHT31;58747;50.674;4.616;2022-08-01T13:20:04;27.55;45.64
71088;SHT31;58747;50.674;4.616;2022-08-01T13:22:34;26.86;47.02
71088;SHT31;58747;50.674;4.616;2022-08-01T13:25:10;26.91;46.81
71088;SHT31;58747;50.674;4.616;2022-08-01T13:27:36;27.18;47.66
71088;SHT31;58747;50.674;4.616;2022-08-01T13:30:31;27.39;45.91
71088;SHT31;58747;50.674;4.616;2022-08-01T13:32:58;27.03;44.20
71088;SHT31;58747;50.674;4.616;2022-08-01T13:35:23;27.15;45.31
71088;SHT31;58747;50.674;4.616;2022-08-01T13:37:48;26.77;46.92
71088;SHT31;58747;50.674;4.616;2022-08-01T13:40:23;26.77;46.19
71088;SHT31;58747;50.674;4.616;2022-08-01T13:42:49;26.84;46.59
71088;SHT31;58747;50.674;4.616;2022-08-01T13:45:14;26.93;45.44
71088;SHT31;58747;50.674;4.616;2022-08-01T13:47:39;26.82;46.32
71088;SHT31;58747;50.674;4.616;2022-08-01T13:50:05;26.79;46.56
71088;SHT31;58747;50.674;4.616;2022-08-01T13:52:30;26.86;46.87
71088;SHT31;58747;50.674;4.616;2022-08-01T13:54:56;26.95;46.82
71088;SHT31;58747;50.674;4.616;2022-08-01T13:57:22;27.12;45.62
71088;SHT31;58747;50.674;4.616;2022-08-01T13:59:48;27.20;46.51
71088;SHT31;58747;50.674;4.616;2022-08-01T14:02:13;27.34;44.24
71088;SHT31;58747;50.674;4.616;2022-08-01T14:04:38;27.56;43.90
71088;SHT31;58747;50.674;4.616;2022-08-01T14:07:04;27.38;43.72
71088;SHT31;58747;50.674;4.616;2022-08-01T14:09:29;27.05;45.81
71088;SHT31;58747;50.674;4.616;2022-08-01T14:11:55;27.08;45.03
71088;SHT31;58747;50.674;4.616;2022-08-01T14:14:20;26.98;45.20
71088;SHT31;58747;50.674;4.616;2022-08-01T14:16:45;26.70;46.13
71088;SHT31;58747;50.674;4.616;2022-08-01T14:19:11;26.73;47.66
71088;SHT31;58747;50.674;4.616;2022-08-01T14:21:36;26.77;46.38
71088;SHT31;58747;50.674;4.616;2022-08-01T14:24:02;26.77;46.98
71088;SHT31;58747;50.674;4.616;2022-08-01T14:26:27;26.50;46.39
71088;SHT31;58747;50.674;4.616;2022-08-01T14:28:52;26.55;46.70
71088;SHT31;58747;50.674;4.616;2022-08-01T14:31:18;26.45;47.53
71088;SHT31;58747;50.674;4.616;2022-08-01T14:33:43;26.39;47.35
71088;SHT31;58747;50.674;4.616;2022-08-01T14:36:08;26.40;47.98
71088;SHT31;58747;50.674;4.616;2022-08-01T14:38:34;26.52;47.78
71088;SHT31;58747;50.674;4.616;2022-08-01T14:41:00;26.64;46.95
71088;SHT31;58747;50.674;4.616;2022-08-01T14:43:25;26.59;46.90
71088;SHT31;58747;50.674;4.616;2022-08-01T14:45:51;26.55;47.72
71088;SHT31;58747;50.674;4.616;2022-08-01T14:48:17;26.53;47.43
71088;SHT31;58747;50.674;4.616;2022-08-01T14:50:42;26.36;46.63
71088;SHT31;58747;50.674;4.616;2022-08-01T14:53:08;26.47;46.89
71088;SHT31;58747;50.674;4.616;2022-08-01T14:55:33;26.47;46.90
71088;SHT31;58747;50.674;4.616;2022-08-01T14:57:58;26.55;47.43
71088;SHT31;58747;50.674;4.616;2022-08-01T15:00:24;26.57;47.21
71088;SHT31;58747;50.674;4.616;2022-08-01T15:02:49;26.66;46.20
71088;SHT31;58747;50.674;4.616;2022-08-01T15:05:15;26.50;48.16
71088;SHT31;58747;50.674;4.616;2022-08-01T15:07:40;26.31;47.95
71088;SHT31;58747;50.674;4.616;2022-08-01T15:10:06;26.02;48.54
71088;SHT31;58747;50.674;4.616;2022-08-01T15:12:32;25.92;49.29
71088;SHT31;58747;50.674;4.616;2022-08-01T15:14:58;25.99;48.57
71088;SHT31;58747;50.674;4.616;2022-08-01T15:17:26;26.12;48.73
71088;SHT31;58747;50.674;4.616;2022-08-01T15:19:56;26.24;48.93
71088;SHT31;58747;50.674;4.616;2022-08-01T15:22:23;26.47;45.84
71088;SHT31;58747;50.674;4.616;2022-08-01T15:24:50;26.25;46.45
71088;SHT31;58747;50.674;4.616;2022-08-01T15:27:15;26.28;47.70
71088;SHT31;58747;50.674;4.616;2022-08-01T15:29:41;26.32;47.31
71088;SHT31;58747;50.674;4.616;2022-08-01T15:32:07;26.29;45.51
71088;SHT31;58747;50.674;4.616;2022-08-01T15:34:34;26.36;47.92
71088;SHT31;58747;50.674;4.616;2022-08-01T15:37:00;26.39;47.58
71088;SHT31;58747;50.674;4.616;2022-08-01T15:39:26;26.50;46.28
71088;SHT31;58747;50.674;4.616;2022-08-01T15:41:51;26.46;45.12
71088;SHT31;58747;50.674;4.616;2022-08-01T15:44:17;26.46;45.77
71088;SHT31;58747;50.674;4.616;2022-08-01T15:46:46;26.50;45.65
71088;SHT31;58747;50.674;4.616;2022-08-01T15:49:11;26.60;44.74
71088;SHT31;58747;50.674;4.616;2022-08-01T15:51:37;26.63;44.39
71088;SHT31;58747;50.674;4.616;2022-08-01T15:54:02;26.57;45.98
71088;SHT31;58747;50.674;4.616;2022-08-01T15:56:32;26.63;45.67
71088;SHT31;58747;50.674;4.616;2022-08-01T15:58:58;26.80;43.93
71088;SHT31;58747;50.674;4.616;2022-08-01T16:01:23;26.83;43.61
71088;SHT31;58747;50.674;4.616;2022-08-01T16:03:52;26.76;45.47
71088;SHT31;58747;50.674;4.616;2022-08-01T16:06:17;26.42;44.47